createdAt,value
2022-12-16T00:05:14.472Z,-4.05
2022-12-16T00:08:16.078Z,-4.06
2022-12-16T00:11:17.748Z,-4.06
2022-12-16T00:14:21.426Z,-4.16
2022-12-16T00:17:23.267Z,-4.16
2022-12-16T00:20:26.400Z,-4.21
2022-12-16T00:23:28.786Z,-4.29
2022-12-16T00:26:31.297Z,-4.25
2022-12-16T00:29:34.766Z,-4.26
2022-12-16T00:32:36.465Z,-4.37
2022-12-16T00:35:44.397Z,-4.44
2022-12-16T00:38:47.468Z,-4.35
2022-12-16T00:41:50.831Z,-4.27
2022-12-16T00:44:53.623Z,-4.14
2022-12-16T00:47:56.571Z,-3.94
2022-12-16T00:50:59.765Z,-3.97
2022-12-16T00:54:01.675Z,-4.04
2022-12-16T00:57:03.475Z,-3.85
2022-12-16T01:00:12.828Z,-3.79
2022-12-16T01:03:19.604Z,-3.79
2022-12-16T01:06:24.781Z,-3.84
2022-12-16T01:09:26.406Z,-3.89
2022-12-16T01:12:28.252Z,-3.94
2022-12-16T01:15:29.939Z,-4.13
2022-12-16T01:18:31.740Z,-4.19
2022-12-16T01:21:34.884Z,-4.19
2022-12-16T01:24:36.621Z,-4.34
2022-12-16T01:27:38.306Z,-4.39
2022-12-16T01:30:40.045Z,-4.50
2022-12-16T01:33:41.812Z,-4.35
2022-12-16T01:36:44.895Z,-4.48
2022-12-16T01:39:47.564Z,-4.64
2022-12-16T01:42:49.333Z,-4.78
2022-12-16T01:45:52.551Z,-4.77
2022-12-16T01:48:59.158Z,-4.75
2022-12-16T01:52:05.514Z,-4.83
2022-12-16T01:55:12.765Z,-4.89
2022-12-16T01:58:19.576Z,-4.83
2022-12-16T02:01:21.818Z,-4.89
2022-12-16T02:04:23.843Z,-4.89
2022-12-16T02:07:26.891Z,-4.95
2022-12-16T02:10:49.290Z,-4.99
2022-12-16T02:14:07.374Z,-5.09
2022-12-16T02:17:15.021Z,-5.06
2022-12-16T02:20:39.576Z,-5.14
2022-12-16T02:24:29.375Z,-5.23
2022-12-16T02:27:54.955Z,-5.35
2022-12-16T02:31:17.005Z,-5.59
2022-12-16T02:34:29.655Z,-5.62
2022-12-16T02:37:38.607Z,-5.62
2022-12-16T02:40:45.769Z,-5.66
2022-12-16T02:43:53.363Z,-5.68
2022-12-16T02:46:56.733Z,-5.72
2022-12-16T02:50:00.316Z,-5.70
2022-12-16T02:53:03.526Z,-5.64
2022-12-16T02:56:15.900Z,-5.57
2022-12-16T02:59:24.418Z,-5.59
2022-12-16T03:02:34.551Z,-5.62
2022-12-16T03:05:40.898Z,-5.66
2022-12-16T03:08:49.715Z,-5.69
2022-12-16T03:11:54.445Z,-5.78
2022-12-16T03:14:56.301Z,-5.77
2022-12-16T03:18:00.805Z,-5.86
2022-12-16T03:21:05.688Z,-5.98
2022-12-16T03:24:10.603Z,-5.99
2022-12-16T03:27:19.256Z,-5.79
2022-12-16T03:30:26.634Z,-5.92
2022-12-16T03:33:34.837Z,-5.93
2022-12-16T03:36:39.741Z,-6.03
2022-12-16T03:39:46.339Z,-6.05
2022-12-16T03:42:48.709Z,-5.99
2022-12-16T03:45:56.580Z,-6.05
2022-12-16T03:48:59.792Z,-6.14
2022-12-16T03:52:01.343Z,-6.15
2022-12-16T03:55:03.256Z,-6.22
2022-12-16T03:58:04.975Z,-6.15
2022-12-16T04:01:07.995Z,-6.21
2022-12-16T04:04:11.114Z,-6.37
2022-12-16T04:07:21.715Z,-6.28
2022-12-16T04:10:43.608Z,-6.29
2022-12-16T04:14:03.821Z,-6.35
2022-12-16T04:17:24.863Z,-6.34
2022-12-16T04:20:50.095Z,-6.34
2022-12-16T04:24:15.802Z,-6.56
2022-12-16T04:27:27.818Z,-6.71
2022-12-16T04:30:34.731Z,-6.80
2022-12-16T04:33:55.572Z,-6.82
2022-12-16T04:37:19.761Z,-6.91
2022-12-16T04:40:40.272Z,-6.93
2022-12-16T04:44:00.501Z,-7.00
2022-12-16T04:47:21.171Z,-6.90
2022-12-16T04:50:41.758Z,-6.91
2022-12-16T04:54:03.379Z,-7.09
2022-12-16T04:57:24.046Z,-7.13
2022-12-16T05:00:44.496Z,-7.30
2022-12-16T05:04:04.829Z,-7.24
2022-12-16T05:07:25.230Z,-7.21
2022-12-16T05:10:46.745Z,-7.22
2022-12-16T05:14:07.806Z,-7.22
2022-12-16T05:17:28.273Z,-7.28
2022-12-16T05:20:48.905Z,-7.43
2022-12-16T05:24:09.177Z,-7.42
2022-12-16T05:27:30.783Z,-7.45
2022-12-16T05:31:07.729Z,-7.49
2022-12-16T05:34:28.556Z,-7.46
2022-12-16T05:37:48.916Z,-7.50
2022-12-16T05:41:09.159Z,-7.50
2022-12-16T05:44:30.985Z,-7.32
2022-12-16T05:47:51.198Z,-7.38
2022-12-16T05:51:11.345Z,-7.49
2022-12-16T05:54:31.816Z,-7.52
2022-12-16T05:57:53.929Z,-7.70
2022-12-16T06:01:15.858Z,-7.55
2022-12-16T06:04:36.116Z,-7.56
2022-12-16T06:07:56.670Z,-7.45
2022-12-16T06:11:16.797Z,-7.68
2022-12-16T06:14:37.107Z,-7.75
2022-12-16T06:18:02.072Z,-7.82
2022-12-16T06:21:22.485Z,-7.75
2022-12-16T06:24:42.690Z,-7.85
2022-12-16T06:28:09.208Z,-7.70
2022-12-16T06:31:30.082Z,-7.85
2022-12-16T06:34:51.964Z,-7.77
2022-12-16T06:38:12.240Z,-7.92
2022-12-16T06:41:32.815Z,-7.98
2022-12-16T06:44:53.235Z,-7.97
2022-12-16T06:48:13.528Z,-8.01
2022-12-16T06:51:35.337Z,-8.10
2022-12-16T06:54:55.788Z,-8.16
2022-12-16T06:58:16.808Z,-8.17
2022-12-16T07:01:37.201Z,-8.18
2022-12-16T07:04:57.776Z,-8.26
2022-12-16T07:08:19.721Z,-8.10
2022-12-16T07:11:40.030Z,-8.05
2022-12-16T07:15:00.368Z,-8.09
2022-12-16T07:18:20.735Z,-8.06
2022-12-16T07:21:41.073Z,-8.16
2022-12-16T07:25:03.287Z,-8.16
2022-12-16T07:28:23.726Z,-8.17
2022-12-16T07:31:44.287Z,-8.20
2022-12-16T07:35:04.557Z,-8.15
2022-12-16T07:38:24.818Z,-8.14
2022-12-16T07:41:46.685Z,-8.08
2022-12-16T07:45:07.930Z,-8.19
2022-12-16T07:48:28.524Z,-8.12
2022-12-16T07:51:48.924Z,-7.92
2022-12-16T07:55:09.049Z,-7.96
2022-12-16T07:58:30.776Z,-7.89
2022-12-16T08:01:51.591Z,-7.94
2022-12-16T08:05:12.463Z,-7.93
2022-12-16T08:08:33.146Z,-7.81
2022-12-16T08:11:53.424Z,-7.72
2022-12-16T08:15:16.456Z,-7.66
2022-12-16T08:18:36.808Z,-7.57
2022-12-16T08:21:57.453Z,-7.59
2022-12-16T08:25:17.946Z,-7.48
2022-12-16T08:28:38.210Z,-7.30
2022-12-16T08:32:00.112Z,-7.16
2022-12-16T08:35:20.560Z,-7.15
2022-12-16T08:38:40.709Z,-7.15
2022-12-16T08:42:01.051Z,-7.08
2022-12-16T08:45:21.396Z,-6.98
2022-12-16T08:48:43.611Z,-6.80
2022-12-16T08:52:03.961Z,-6.71
2022-12-16T08:55:29.437Z,-6.59
2022-12-16T08:58:50.326Z,-6.56
2022-12-16T09:02:11.921Z,-6.43
2022-12-16T09:05:33.731Z,-6.33
2022-12-16T09:08:54.336Z,-6.20
2022-12-16T09:12:16.219Z,-6.08
2022-12-16T09:15:36.654Z,-6.00
2022-12-16T09:18:57.143Z,-5.90
2022-12-16T09:22:18.700Z,-5.73
2022-12-16T09:25:39.029Z,-5.57
2022-12-16T09:28:59.437Z,-5.40
2022-12-16T09:32:19.727Z,-5.29
2022-12-16T09:35:40.096Z,-5.19
2022-12-16T09:39:01.490Z,-5.03
2022-12-16T09:42:33.642Z,-4.83
2022-12-16T09:46:03.824Z,-4.69
2022-12-16T09:49:35.175Z,-4.44
2022-12-16T09:53:00.006Z,-4.31
2022-12-16T09:56:24.504Z,-4.21
2022-12-16T09:59:49.285Z,-4.03
2022-12-16T10:03:10.777Z,-3.85
2022-12-16T10:06:48.424Z,-3.53
2022-12-16T10:10:19.553Z,-3.34
2022-12-16T10:13:49.623Z,-3.24
2022-12-16T10:17:21.017Z,-3.06
2022-12-16T10:20:52.609Z,-2.92
2022-12-16T10:24:20.656Z,-2.49
2022-12-16T10:27:51.075Z,-2.25
2022-12-16T10:31:13.125Z,-2.13
2022-12-16T10:34:38.056Z,-1.83
2022-12-16T10:37:59.462Z,-1.47
2022-12-16T10:41:40.553Z,-1.43
2022-12-16T10:45:09.501Z,-1.24
2022-12-16T10:48:32.382Z,-1.71
2022-12-16T10:51:53.023Z,-1.68
2022-12-16T10:55:19.920Z,-1.22
2022-12-16T10:58:49.953Z,-1.38
2022-12-16T11:02:19.534Z,-1.38
2022-12-16T11:05:59.329Z,-1.44
2022-12-16T11:09:33.613Z,-1.45
2022-12-16T11:12:53.815Z,-1.14
2022-12-16T11:16:25.858Z,-1.37
2022-12-16T11:19:48.555Z,-1.03
2022-12-16T11:23:26.681Z,-0.62
2022-12-16T11:26:46.759Z,-0.26
2022-12-16T11:30:12.459Z,-0.56
2022-12-16T11:33:39.565Z,-0.79
2022-12-16T11:37:02.709Z,-0.39
2022-12-16T11:40:30.782Z,-0.37
2022-12-16T11:43:51.560Z,-0.24
2022-12-16T11:47:12.769Z,-0.43
2022-12-16T11:50:36.776Z,-0.23
2022-12-16T11:53:59.150Z,0.49
2022-12-16T11:57:23.248Z,0.20
2022-12-16T12:00:43.386Z,0.06
2022-12-16T12:04:07.837Z,0.97
2022-12-16T12:07:48.455Z,0.09
2022-12-16T12:11:22.825Z,1.11
2022-12-16T12:14:51.990Z,0.46
2022-12-16T12:18:18.249Z,0.39
2022-12-16T12:21:43.601Z,0.62
2022-12-16T12:25:11.637Z,1.39
2022-12-16T12:28:42.549Z,0.78
2022-12-16T12:32:15.587Z,0.00
2022-12-16T12:35:54.228Z,0.66
2022-12-16T12:39:26.570Z,1.05
2022-12-16T12:42:56.178Z,1.71
2022-12-16T12:46:23.893Z,1.67
2022-12-16T12:49:51.929Z,0.81
2022-12-16T12:53:36.803Z,2.66
2022-12-16T12:57:03.555Z,3.32
2022-12-16T13:00:28.490Z,3.14
2022-12-16T13:03:56.031Z,3.03
2022-12-16T13:07:23.992Z,2.87
2022-12-16T13:10:53.831Z,2.00
2022-12-16T13:14:14.122Z,2.41
2022-12-16T13:17:35.283Z,3.57
2022-12-16T13:20:56.773Z,3.04
2022-12-16T13:24:39.325Z,2.08
2022-12-16T13:28:12.018Z,3.30
2022-12-16T13:31:33.284Z,3.55
2022-12-16T13:34:53.672Z,2.75
2022-12-16T13:38:15.899Z,2.12
2022-12-16T13:42:09.540Z,1.88
2022-12-16T13:45:49.593Z,1.40
2022-12-16T13:49:10.194Z,0.87
2022-12-16T13:52:35.706Z,0.96
2022-12-16T13:56:00.273Z,0.27
2022-12-16T13:59:27.015Z,0.02
2022-12-16T14:02:51.784Z,-0.25
2022-12-16T14:06:13.580Z,-0.65
2022-12-16T14:09:45.846Z,-0.80
2022-12-16T14:13:18.002Z,-0.80
2022-12-16T14:16:50.147Z,-0.79
2022-12-16T14:20:19.954Z,-0.91
2022-12-16T14:23:58.032Z,-0.82
2022-12-16T14:27:24.303Z,-0.92
2022-12-16T14:30:45.488Z,-0.88
2022-12-16T14:34:12.637Z,-0.91
2022-12-16T14:37:34.360Z,-0.96
2022-12-16T14:40:54.890Z,-1.06
2022-12-16T14:44:15.254Z,-1.19
2022-12-16T14:47:37.591Z,-1.19
2022-12-16T14:50:59.524Z,-1.27
2022-12-16T14:54:34.932Z,-1.38
2022-12-16T14:57:55.146Z,-1.43
2022-12-16T15:01:33.049Z,-1.47
2022-12-16T15:04:53.498Z,-1.57
2022-12-16T15:08:18.116Z,-1.60
2022-12-16T15:11:41.918Z,-1.62
2022-12-16T15:15:02.756Z,-1.78
2022-12-16T15:18:24.022Z,-1.75
2022-12-16T15:21:44.797Z,-1.97
2022-12-16T15:25:06.797Z,-2.06
2022-12-16T15:28:42.583Z,-2.14
2022-12-16T15:32:03.841Z,-2.26
2022-12-16T15:35:24.753Z,-2.36
2022-12-16T15:38:48.298Z,-2.42
2022-12-16T15:42:09.931Z,-2.49
2022-12-16T15:45:42.177Z,-2.63
2022-12-16T15:49:02.535Z,-2.75
2022-12-16T15:52:40.708Z,-2.86
2022-12-16T15:56:05.213Z,-2.99
2022-12-16T15:59:40.786Z,-2.99
2022-12-16T16:03:06.063Z,-3.05
2022-12-16T16:06:35.663Z,-3.23
2022-12-16T16:09:58.274Z,-3.26
2022-12-16T16:13:18.838Z,-3.36
2022-12-16T16:16:40.269Z,-3.37
2022-12-16T16:20:03.836Z,-3.50
2022-12-16T16:23:24.566Z,-3.58
2022-12-16T16:26:46.739Z,-3.57
2022-12-16T16:30:06.922Z,-3.69
2022-12-16T16:33:28.857Z,-3.75
2022-12-16T16:36:49.031Z,-3.75
2022-12-16T16:40:09.501Z,-3.76
2022-12-16T16:43:29.784Z,-3.76
2022-12-16T16:46:53.253Z,-3.59
2022-12-16T16:50:19.244Z,-3.66
2022-12-16T16:53:39.858Z,-3.94
2022-12-16T16:57:00.262Z,-3.87
2022-12-16T17:00:20.690Z,-4.00
2022-12-16T17:04:00.803Z,-4.06
2022-12-16T17:07:22.533Z,-3.97
2022-12-16T17:10:42.773Z,-4.22
2022-12-16T17:14:02.984Z,-4.18
2022-12-16T17:17:24.590Z,-4.24
2022-12-16T17:20:45.056Z,-4.27
2022-12-16T17:24:06.461Z,-4.34
2022-12-16T17:27:33.284Z,-4.44
2022-12-16T17:30:53.869Z,-4.60
2022-12-16T17:34:14.246Z,-4.57
2022-12-16T17:37:34.542Z,-4.59
2022-12-16T17:40:56.329Z,-4.65
2022-12-16T17:44:18.225Z,-4.67
2022-12-16T17:47:38.665Z,-4.75
2022-12-16T17:50:59.337Z,-4.79
2022-12-16T17:54:25.049Z,-4.75
2022-12-16T17:57:49.562Z,-4.77
2022-12-16T18:01:09.948Z,-4.84
2022-12-16T18:04:30.253Z,-4.91
2022-12-16T18:07:50.473Z,-4.86
2022-12-16T18:11:10.909Z,-4.69
2022-12-16T18:14:32.376Z,-4.70
2022-12-16T18:17:52.613Z,-4.63
2022-12-16T18:21:13.267Z,-4.96
2022-12-16T18:24:33.784Z,-5.15
2022-12-16T18:27:54.924Z,-5.21
2022-12-16T18:31:16.435Z,-5.17
2022-12-16T18:34:37.477Z,-5.14
2022-12-16T18:37:57.873Z,-5.16
2022-12-16T18:41:22.987Z,-5.07
2022-12-16T18:44:43.545Z,-5.16
2022-12-16T18:48:05.283Z,-5.19
2022-12-16T18:51:26.948Z,-5.24
2022-12-16T18:54:47.272Z,-5.39
2022-12-16T18:58:21.094Z,-5.46
2022-12-16T19:01:49.280Z,-5.51
2022-12-16T19:05:11.130Z,-5.43
2022-12-16T19:08:31.978Z,-5.55
2022-12-16T19:11:52.380Z,-5.60
2022-12-16T19:15:12.926Z,-5.52
2022-12-16T19:18:33.668Z,-5.53
2022-12-16T19:21:56.619Z,-5.68
2022-12-16T19:25:17.452Z,-5.75
2022-12-16T19:28:37.892Z,-5.77
2022-12-16T19:31:58.383Z,-5.84
2022-12-16T19:35:18.576Z,-5.91
2022-12-16T19:38:40.365Z,-6.09
2022-12-16T19:42:03.469Z,-6.02
2022-12-16T19:45:24.889Z,-6.01
2022-12-16T19:48:45.561Z,-6.08
2022-12-16T19:52:06.243Z,-6.19
2022-12-16T19:55:28.948Z,-6.32
2022-12-16T19:58:49.532Z,-6.21
2022-12-16T20:02:30.080Z,-6.26
2022-12-16T20:05:50.608Z,-6.19
2022-12-16T20:09:13.583Z,-6.24
2022-12-16T20:12:35.343Z,-6.31
2022-12-16T20:15:56.218Z,-6.42
2022-12-16T20:19:17.114Z,-6.31
2022-12-16T20:22:37.441Z,-6.29
2022-12-16T20:25:57.678Z,-6.41
2022-12-16T20:29:19.647Z,-6.39
2022-12-16T20:32:39.901Z,-6.35
2022-12-16T20:36:00.022Z,-6.32
2022-12-16T20:39:23.507Z,-6.46
2022-12-16T20:42:43.986Z,-6.43
2022-12-16T20:46:05.702Z,-6.36
2022-12-16T20:49:25.831Z,-6.21
2022-12-16T20:52:46.409Z,-6.27
2022-12-16T20:56:06.716Z,-6.36
2022-12-16T20:59:26.859Z,-6.51
2022-12-16T21:02:48.346Z,-6.60
2022-12-16T21:06:08.909Z,-6.64
2022-12-16T21:09:30.074Z,-6.80
2022-12-16T21:12:50.551Z,-6.56
2022-12-16T21:16:10.732Z,-6.57
2022-12-16T21:19:34.748Z,-6.64
2022-12-16T21:22:55.124Z,-6.79
2022-12-16T21:26:18.130Z,-6.79
2022-12-16T21:29:38.268Z,-6.86
2022-12-16T21:32:58.794Z,-6.85
2022-12-16T21:36:20.741Z,-6.96
2022-12-16T21:39:41.164Z,-6.87
2022-12-16T21:43:01.664Z,-6.74
2022-12-16T21:46:21.918Z,-6.86
2022-12-16T21:49:42.116Z,-6.95
2022-12-16T21:53:05.601Z,-7.04
2022-12-16T21:56:27.522Z,-6.96
2022-12-16T21:59:47.696Z,-7.13
2022-12-16T22:03:08.146Z,-7.04
2022-12-16T22:06:29.655Z,-7.16
2022-12-16T22:09:51.589Z,-6.97
2022-12-16T22:13:12.025Z,-7.09
2022-12-16T22:16:32.566Z,-7.18
2022-12-16T22:19:56.128Z,-7.24
2022-12-16T22:23:16.531Z,-7.21
2022-12-16T22:26:38.006Z,-7.26
2022-12-16T22:29:58.193Z,-7.30
2022-12-16T22:33:18.395Z,-7.28
2022-12-16T22:36:39.076Z,-7.30
2022-12-16T22:39:59.594Z,-7.34
2022-12-16T22:43:21.264Z,-7.40
2022-12-16T22:46:41.513Z,-7.40
2022-12-16T22:50:02.049Z,-7.34
2022-12-16T22:53:22.513Z,-7.39
2022-12-16T22:56:42.753Z,-7.44
2022-12-16T23:00:04.589Z,-7.50
2022-12-16T23:03:24.993Z,-7.53
2022-12-16T23:06:45.618Z,-7.49
2022-12-16T23:10:06.213Z,-7.56
2022-12-16T23:13:29.380Z,-7.41
2022-12-16T23:16:51.752Z,-7.50
2022-12-16T23:20:13.803Z,-7.58
2022-12-16T23:23:34.291Z,-7.77
2022-12-16T23:26:54.705Z,-7.85
2022-12-16T23:30:16.538Z,-7.91
2022-12-16T23:33:38.541Z,-7.91
2022-12-16T23:36:59.087Z,-7.88
2022-12-16T23:40:19.577Z,-7.92
2022-12-16T23:43:40.394Z,-7.93
2022-12-16T23:47:00.754Z,-7.94
2022-12-16T23:50:23.313Z,-7.97
2022-12-16T23:53:43.757Z,-8.07
2022-12-16T23:57:03.781Z,-7.94
